Mima, Kentucky
Current Conditions -  °F | °C
As of 9:53 AM on Friday 19 Dec 2014 (Local Time) from KJKL Reporting Station
Few Clouds Few Clouds  
Wind Chill: 33°   Ceiling: Unl
Heat Index: 33°   Visibility: 9mi
Dew Point: 24°   Wind: 0mph
Humidity: 70%   Direction: NA
Pressure: 30.23"   Gusts: NA
Location:  37.937°N, 83.2694°W
Report Text: KJKL 191453Z AUTO 00000KT 9SM FEW014 01/M04 A3023 RMK AO2 SLP248 T00061044 50006
Loading
Personal Weather Stations






























Interactive Weather Map New forecast layout! Learn more

10-Day Weather Forecast

Advertisements
Track Severe Weather on mobile